Time;durP1;ratioP1;P1;durP2;ratioP2;P2;SDS_P1;SDS_P2;PMS_P1;PMS_P2;Temp;Humidity;BMP_temperature;BMP_pressure;BME280_temperature;BME280_humidity;BME280_pressure;Samples;Min_cycle;Max_cycle;Signal;HPM_P1;HPM_P2
2021/10/29 00:01:37;;;;;;;161.00;31.20;;;7.70;92.60;;;;;;6300279;28;20041;-85
2021/10/29 00:04:38;;;;;;;137.38;29.35;;;7.70;92.50;;;;;;6299635;28;20189;-85
2021/10/29 00:07:40;;;;;;;133.45;30.70;;;7.70;92.50;;;;;;6300151;28;20057;-85
2021/10/29 00:10:42;;;;;;;101.60;27.80;;;7.70;92.60;;;;;;6301602;28;20060;-84
2021/10/29 00:13:45;;;;;;;154.25;31.23;;;7.70;92.60;;;;;;6301003;28;20520;-84
2021/10/29 00:16:47;;;;;;;81.75;26.17;;;7.70;92.60;;;;;;6300294;28;20040;-85
2021/10/29 00:19:49;;;;;;;191.55;37.00;;;7.70;92.60;;;;;;6300698;28;20051;-83
2021/10/29 00:22:50;;;;;;;93.20;24.70;;;7.70;92.60;;;;;;6301024;28;20052;-85
2021/10/29 00:25:52;;;;;;;97.93;26.20;;;7.70;92.60;;;;;;6301410;28;20048;-85
2021/10/29 00:28:55;;;;;;;97.38;27.88;;;7.70;92.60;;;;;;6288495;28;20044;-85
2021/10/29 00:31:57;;;;;;;107.97;26.75;;;7.70;92.60;;;;;;6250810;28;20060;-86
2021/10/29 00:34:59;;;;;;;92.20;26.17;;;7.70;92.60;;;;;;6273549;28;20053;-85
2021/10/29 00:38:01;;;;;;;120.00;28.58;;;7.70;92.70;;;;;;6259837;28;20053;-84
2021/10/29 00:41:03;;;;;;;103.57;28.23;;;7.70;92.60;;;;;;6256530;28;20562;-85
2021/10/29 00:44:07;;;;;;;98.65;31.67;;;7.80;92.70;;;;;;6258480;28;20049;-84
2021/10/29 00:47:09;;;;;;;133.48;29.33;;;7.80;92.70;;;;;;6256886;28;20052;-85
2021/10/29 00:50:12;;;;;;;184.63;31.83;;;7.80;92.70;;;;;;6257839;28;20045;-85
2021/10/29 00:53:14;;;;;;;118.28;25.80;;;7.80;92.70;;;;;;6266656;28;20127;-85
2021/10/29 00:56:16;;;;;;;117.20;26.42;;;7.80;92.70;;;;;;6278444;28;20041;-84
2021/10/29 00:59:20;;;;;;;152.35;28.40;;;7.80;92.80;;;;;;6256602;28;20136;-84
2021/10/29 01:02:21;;;;;;;106.00;24.35;;;7.90;92.80;;;;;;6256016;28;20046;-86
2021/10/29 01:05:23;;;;;;;93.50;24.33;;;7.90;92.80;;;;;;6255944;28;20095;-85
2021/10/29 01:08:25;;;;;;;124.72;27.05;;;7.90;92.80;;;;;;6255087;28;20191;-86
2021/10/29 01:11:28;;;;;;;88.03;25.70;;;7.90;92.80;;;;;;6255460;28;20684;-84
2021/10/29 01:14:31;;;;;;;105.13;24.48;;;7.90;92.80;;;;;;6277082;28;20422;-84
2021/10/29 01:17:33;;;;;;;98.60;26.35;;;7.90;92.70;;;;;;6266585;28;20415;-84
2021/10/29 01:20:36;;;;;;;73.95;21.92;;;7.90;92.70;;;;;;6256583;28;20418;-85
2021/10/29 01:23:38;;;;;;;72.88;21.08;;;7.90;93.00;;;;;;6256949;28;20140;-85
2021/10/29 01:26:40;;;;;;;90.05;21.90;;;7.90;92.70;;;;;;6255265;28;20046;-86
2021/10/29 01:29:42;;;;;;;115.63;22.30;;;7.90;92.70;;;;;;6254599;28;20511;-85
2021/10/29 01:32:44;;;;;;;118.07;23.58;;;7.80;92.60;;;;;;6258119;28;20416;-85
2021/10/29 01:35:47;;;;;;;86.07;22.20;;;7.80;92.50;;;;;;6278823;28;20056;-86
2021/10/29 01:38:52;;;;;;;103.55;23.33;;;7.80;92.60;;;;;;6258504;28;20355;-86
2021/10/29 01:41:54;;;;;;;85.00;21.70;;;7.70;92.50;;;;;;6295644;28;20055;-85
2021/10/29 01:44:55;;;;;;;85.38;21.67;;;7.60;92.50;;;;;;6312496;28;20484;-87
2021/10/29 01:47:57;;;;;;;107.25;22.23;;;7.60;92.50;;;;;;6320590;28;20080;-87
2021/10/29 01:51:00;;;;;;;94.78;23.98;;;7.60;92.60;;;;;;6305769;28;20174;-85
2021/10/29 01:54:02;;;;;;;92.32;21.80;;;7.60;92.60;;;;;;6304373;28;20116;-85
2021/10/29 01:57:05;;;;;;;76.57;21.08;;;7.60;92.60;;;;;;6307374;28;20139;-85
2021/10/29 02:00:08;;;;;;;102.95;22.95;;;7.60;92.70;;;;;;6305883;28;20055;-86
2021/10/29 02:03:10;;;;;;;93.60;21.08;;;7.50;92.60;;;;;;6305179;28;20071;-86
2021/10/29 02:06:13;;;;;;;79.75;19.92;;;7.50;92.70;;;;;;6298234;28;20049;-84
2021/10/29 02:09:15;;;;;;;96.18;19.30;;;7.50;92.70;;;;;;6289565;28;20051;-85
2021/10/29 02:12:17;;;;;;;73.72;18.33;;;7.50;92.70;;;;;;6281675;28;20044;-86
2021/10/29 02:15:18;;;;;;;65.63;17.95;;;7.40;92.60;;;;;;6283186;28;20104;-85
2021/10/29 02:18:20;;;;;;;66.68;19.98;;;7.40;92.60;;;;;;6281823;28;20044;-86
2021/10/29 02:21:23;;;;;;;99.43;20.92;;;7.40;92.70;;;;;;6282601;28;20055;-86
2021/10/29 02:24:25;;;;;;;71.80;20.23;;;7.40;92.70;;;;;;6283285;28;20109;-85
2021/10/29 02:27:27;;;;;;;63.38;19.20;;;7.30;92.60;;;;;;6282947;28;20570;-85
2021/10/29 02:30:29;;;;;;;111.05;24.95;;;7.30;92.70;;;;;;6280823;28;20045;-85
2021/10/29 02:33:31;;;;;;;85.20;22.65;;;7.30;92.70;;;;;;6279752;28;20052;-87
2021/10/29 02:36:34;;;;;;;70.25;20.45;;;7.30;92.80;;;;;;6281936;28;20049;-85
2021/10/29 02:39:35;;;;;;;75.30;21.52;;;7.30;92.80;;;;;;6279013;28;20545;-87
2021/10/29 02:42:37;;;;;;;94.55;22.33;;;7.40;92.90;;;;;;6278747;28;20048;-87
2021/10/29 02:45:39;;;;;;;70.28;19.30;;;7.30;92.80;;;;;;6280173;28;20850;-84
2021/10/29 02:48:41;;;;;;;71.93;20.35;;;7.30;92.80;;;;;;6280525;28;20048;-86
2021/10/29 02:51:44;;;;;;;56.85;18.58;;;7.30;92.80;;;;;;6281881;28;20104;-86
2021/10/29 02:54:46;;;;;;;73.93;18.75;;;7.30;92.80;;;;;;6281012;28;20102;-86
2021/10/29 02:57:48;;;;;;;121.35;23.30;;;7.30;92.80;;;;;;6280195;28;20084;-86
2021/10/29 03:00:50;;;;;;;93.97;21.10;;;7.30;92.90;;;;;;6279623;28;20125;-87
2021/10/29 03:03:52;;;;;;;64.70;20.98;;;7.30;92.90;;;;;;6281153;28;20143;-86
2021/10/29 03:06:55;;;;;;;63.22;19.80;;;7.30;92.90;;;;;;6280195;28;20041;-86
2021/10/29 03:09:57;;;;;;;65.35;19.77;;;7.30;92.90;;;;;;6279842;28;20041;-85
2021/10/29 03:12:58;;;;;;;66.18;18.92;;;7.30;92.90;;;;;;6280222;28;20457;-86
2021/10/29 03:16:00;;;;;;;62.95;19.42;;;7.30;92.90;;;;;;6280195;28;20059;-86
2021/10/29 03:19:02;;;;;;;56.47;19.70;;;7.30;93.00;;;;;;6281076;28;20115;-85
2021/10/29 03:22:06;;;;;;;88.45;20.08;;;7.30;93.00;;;;;;6280665;28;20072;-85
2021/10/29 03:25:09;;;;;;;70.35;21.30;;;7.30;92.90;;;;;;6280441;28;20503;-85
2021/10/29 03:28:11;;;;;;;58.30;18.95;;;7.30;93.00;;;;;;6279725;28;20422;-86
2021/10/29 03:31:13;;;;;;;57.40;18.02;;;7.30;93.00;;;;;;6281604;28;20129;-86
2021/10/29 03:34:15;;;;;;;56.55;18.55;;;7.30;92.90;;;;;;6281725;28;20088;-85
2021/10/29 03:37:31;;;;;;;60.33;19.15;;;7.30;93.00;;;;;;6281827;28;20060;-85
2021/10/29 03:40:42;;;;;;;38.42;15.23;;;7.30;93.00;;;;;;6282413;28;20045;-85
2021/10/29 03:43:48;;;;;;;59.67;16.48;;;7.30;92.90;;;;;;6283512;28;20060;-86
2021/10/29 03:46:50;;;;;;;62.00;15.90;;;7.30;92.90;;;;;;6282274;28;20045;-86
2021/10/29 03:49:55;;;;;;;71.40;16.83;;;7.30;92.90;;;;;;6282218;28;20048;-86
2021/10/29 03:53:03;;;;;;;67.97;17.55;;;7.20;92.90;;;;;;6281852;28;20063;-85
2021/10/29 03:56:08;;;;;;;64.27;18.17;;;7.20;92.90;;;;;;6282859;28;20081;-85
2021/10/29 03:59:11;;;;;;;148.90;20.92;;;7.20;92.80;;;;;;6283619;28;20045;-85
2021/10/29 04:02:12;;;;;;;140.80;25.05;;;7.20;92.80;;;;;;6282671;28;20051;-86
2021/10/29 04:05:14;;;;;;;80.40;19.23;;;7.10;92.80;;;;;;6281506;28;20045;-84
2021/10/29 04:08:17;;;;;;;101.93;18.75;;;7.10;92.90;;;;;;6280613;28;20029;-85
2021/10/29 04:11:22;;;;;;;76.68;17.50;;;7.10;92.80;;;;;;6280918;28;20053;-85
2021/10/29 04:14:27;;;;;;;98.80;18.88;;;7.10;92.90;;;;;;6286713;28;20045;-85
2021/10/29 04:17:29;;;;;;;93.05;19.25;;;7.20;92.90;;;;;;6286717;28;20106;-85
2021/10/29 04:20:31;;;;;;;138.85;22.80;;;7.10;92.70;;;;;;6287751;28;20041;-85
2021/10/29 04:23:35;;;;;;;77.28;16.38;;;7.10;92.80;;;;;;6287154;28;20052;-85
2021/10/29 04:26:38;;;;;;;75.38;16.80;;;7.10;92.70;;;;;;6283806;28;20087;-84
2021/10/29 04:29:40;;;;;;;101.75;21.38;;;7.00;92.70;;;;;;6284613;28;20041;-84
2021/10/29 04:32:41;;;;;;;89.50;19.65;;;6.90;92.60;;;;;;6285050;28;20051;-84
2021/10/29 04:35:53;;;;;;;70.97;16.23;;;6.90;92.70;;;;;;6285755;28;20051;-84
2021/10/29 04:38:56;;;;;;;66.93;16.05;;;6.80;92.70;;;;;;6286065;28;20047;-84
2021/10/29 04:41:58;;;;;;;104.32;18.65;;;6.70;92.70;;;;;;6286028;28;20047;-85
2021/10/29 04:45:00;;;;;;;108.13;20.33;;;6.70;92.90;;;;;;6286573;28;20143;-84
2021/10/29 04:48:03;;;;;;;78.38;17.10;;;6.60;92.80;;;;;;6286524;28;20045;-84
2021/10/29 04:51:05;;;;;;;58.25;16.08;;;6.50;92.80;;;;;;6286464;28;20061;-85
2021/10/29 04:54:08;;;;;;;158.27;20.65;;;6.60;93.00;;;;;;6286772;28;20041;-84
2021/10/29 04:57:09;;;;;;;62.95;16.17;;;6.60;93.00;;;;;;6287417;28;20400;-85
2021/10/29 05:00:13;;;;;;;77.18;16.77;;;6.60;93.00;;;;;;6289788;28;20503;-85
2021/10/29 05:03:14;;;;;;;123.05;18.92;;;6.60;93.00;;;;;;6295221;28;20053;-84
2021/10/29 05:06:16;;;;;;;52.05;14.35;;;6.50;93.00;;;;;;6292577;28;20113;-85
2021/10/29 05:09:19;;;;;;;70.60;17.55;;;6.50;93.00;;;;;;6296080;28;20434;-84
2021/10/29 05:12:21;;;;;;;33.05;14.35;;;6.60;93.10;;;;;;6286492;28;20041;-85
2021/10/29 05:15:23;;;;;;;48.85;15.23;;;6.60;93.20;;;;;;6284989;28;20512;-84
2021/10/29 05:18:25;;;;;;;55.40;16.38;;;6.70;93.30;;;;;;6283542;28;20053;-84
2021/10/29 05:21:26;;;;;;;49.95;14.57;;;6.70;93.20;;;;;;6282784;28;20065;-85
2021/10/29 05:24:30;;;;;;;47.65;15.77;;;6.80;93.20;;;;;;6282723;28;20059;-84
2021/10/29 05:27:32;;;;;;;64.93;16.48;;;6.80;93.20;;;;;;6284202;28;20049;-85
2021/10/29 05:30:33;;;;;;;49.70;16.63;;;6.80;93.30;;;;;;6283906;28;20045;-85
2021/10/29 05:33:35;;;;;;;52.70;18.10;;;6.90;93.30;;;;;;6284196;28;20434;-85
2021/10/29 05:36:37;;;;;;;73.40;17.27;;;6.90;93.20;;;;;;6285382;28;20108;-85
2021/10/29 05:39:40;;;;;;;45.67;15.27;;;6.90;93.10;;;;;;6285127;28;20068;-84
2021/10/29 05:42:43;;;;;;;97.45;16.75;;;6.90;93.10;;;;;;6282372;28;20140;-84
2021/10/29 05:45:45;;;;;;;49.67;15.80;;;6.90;93.00;;;;;;6282668;28;20124;-85
2021/10/29 05:48:47;;;;;;;69.47;16.52;;;6.90;93.00;;;;;;6282740;28;20447;-86
2021/10/29 05:51:49;;;;;;;48.50;14.23;;;6.80;93.00;;;;;;6283292;28;20048;-85
2021/10/29 05:55:12;;;;;;;84.95;17.63;;;6.80;93.00;;;;;;6282420;28;20595;-85
2021/10/29 05:58:14;;;;;;;49.13;13.65;;;6.80;93.00;;;;;;6282687;28;20048;-84
2021/10/29 06:01:16;;;;;;;84.85;17.50;;;6.70;93.00;;;;;;6281810;28;20053;-83
2021/10/29 06:04:18;;;;;;;80.90;16.58;;;6.70;93.00;;;;;;6281823;28;20057;-84
2021/10/29 06:07:20;;;;;;;90.80;19.15;;;6.70;92.80;;;;;;6283531;28;20056;-84
2021/10/29 06:10:23;;;;;;;68.47;14.30;;;6.60;92.90;;;;;;6282546;28;20045;-83
2021/10/29 06:13:25;;;;;;;44.40;15.13;;;6.70;93.00;;;;;;6281199;28;20080;-83
2021/10/29 06:16:27;;;;;;;40.40;14.52;;;6.60;93.00;;;;;;6280921;28;20422;-84
2021/10/29 06:19:29;;;;;;;115.38;22.13;;;6.70;93.10;;;;;;6282016;28;20127;-84
2021/10/29 06:22:33;;;;;;;61.60;18.30;;;6.70;93.10;;;;;;6278337;28;20052;-85
2021/10/29 06:25:42;;;;;;;69.43;16.67;;;6.70;93.10;;;;;;6278711;28;20048;-84
2021/10/29 06:28:45;;;;;;;52.95;16.02;;;6.70;93.10;;;;;;6293750;28;20098;-85
2021/10/29 06:31:47;;;;;;;49.40;13.57;;;6.80;93.20;;;;;;6306276;28;20127;-85
2021/10/29 06:34:48;;;;;;;58.92;15.50;;;6.80;93.20;;;;;;6304607;28;20118;-84
2021/10/29 06:37:50;;;;;;;56.22;14.10;;;6.90;93.20;;;;;;6303288;28;20681;-84
2021/10/29 06:40:56;;;;;;;45.03;14.35;;;6.90;93.10;;;;;;6305589;28;20044;-84
2021/10/29 06:44:17;;;;;;;49.30;13.93;;;6.90;93.10;;;;;;6308471;28;20056;-84
2021/10/29 07:01:25;;;;;;;53.17;13.38;;;6.90;92.60;;;;;;6304644;28;20040;-85
2021/10/29 07:04:58;;;;;;;61.40;13.70;;;6.80;92.60;;;;;;6304950;28;20060;-86
2021/10/29 07:11:56;;;;;;;100.43;20.17;;;6.80;92.60;;;;;;6304391;28;20072;-84
2021/10/29 07:42:54;;;;;;;78.57;14.95;;;6.90;92.50;;;;;;6280469;28;20049;-81
2021/10/29 07:45:55;;;;;;;59.00;13.30;;;6.90;92.40;;;;;;6279672;28;20052;-78
2021/10/29 07:48:57;;;;;;;65.15;12.73;;;6.80;92.20;;;;;;6292417;28;20525;-81
2021/10/29 07:52:00;;;;;;;61.13;10.90;;;6.70;92.40;;;;;;6311158;28;20098;-79
2021/10/29 07:55:02;;;;;;;28.10;8.68;;;6.70;92.20;;;;;;6312822;28;20045;-80
2021/10/29 07:58:04;;;;;;;56.95;12.65;;;6.70;92.20;;;;;;6311458;28;20136;-80
2021/10/29 08:01:06;;;;;;;27.15;8.55;;;6.70;92.10;;;;;;6303333;28;20044;-79
2021/10/29 08:04:07;;;;;;;63.22;15.18;;;6.70;92.10;;;;;;6311066;28;20059;-79
2021/10/29 08:07:11;;;;;;;37.55;11.18;;;6.80;92.30;;;;;;6311116;28;20048;-80
2021/10/29 08:10:13;;;;;;;31.55;7.97;;;6.90;92.40;;;;;;6310267;28;20139;-79
2021/10/29 08:13:15;;;;;;;47.75;12.25;;;7.00;92.40;;;;;;6310296;28;20131;-80
2021/10/29 08:16:16;;;;;;;20.92;9.68;;;7.10;92.40;;;;;;6309231;28;20090;-80
2021/10/29 08:19:23;;;;;;;88.25;17.00;;;7.10;92.30;;;;;;6309553;28;20045;-79
2021/10/29 08:22:26;;;;;;;34.72;13.70;;;7.20;92.20;;;;;;6308460;28;20072;-80
2021/10/29 08:25:29;;;;;;;23.23;9.98;;;7.20;92.20;;;;;;6308429;28;20040;-80
2021/10/29 08:28:31;;;;;;;33.40;10.18;;;7.20;92.20;;;;;;6306891;28;20057;-78
2021/10/29 08:31:33;;;;;;;35.10;10.05;;;7.30;92.20;;;;;;6283461;28;20049;-80
2021/10/29 08:34:35;;;;;;;24.73;9.40;;;7.30;92.20;;;;;;6291372;28;20049;-80
2021/10/29 08:37:40;;;;;;;30.33;9.90;;;7.40;92.20;;;;;;6282832;28;20052;-79
2021/10/29 08:40:43;;;;;;;28.70;9.10;;;7.50;92.20;;;;;;6281992;28;20108;-78
2021/10/29 08:43:45;;;;;;;23.70;9.18;;;7.60;92.20;;;;;;6283897;28;20067;-80
2021/10/29 08:46:46;;;;;;;44.22;11.63;;;7.60;92.10;;;;;;6283045;28;20094;-80
2021/10/29 08:49:50;;;;;;;22.75;8.38;;;7.70;91.90;;;;;;6282407;28;20175;-79
2021/10/29 08:52:53;;;;;;;48.28;12.15;;;7.70;91.80;;;;;;6282225;28;20099;-80
2021/10/29 08:56:00;;;;;;;31.52;10.65;;;7.80;91.80;;;;;;6282965;28;20130;-79
2021/10/29 08:59:14;;;;;;;38.15;11.90;;;7.90;91.70;;;;;;6289814;28;20041;-79
2021/10/29 09:02:20;;;;;;;42.13;11.32;;;7.90;91.50;;;;;;6304474;28;20635;-80
2021/10/29 09:05:25;;;;;;;30.60;13.30;;;8.00;91.40;;;;;;6306611;28;20052;-79
2021/10/29 09:08:50;;;;;;;58.67;26.48;;;8.10;91.40;;;;;;6306168;28;20045;-79
2021/10/29 09:12:10;;;;;;;38.53;23.80;;;8.10;91.20;;;;;;6306745;28;20053;-80
2021/10/29 09:32:06;;;;;;;47.80;10.45;;;8.40;90.60;;;;;;6305522;28;20053;-79
2021/10/29 09:35:10;;;;;;;19.52;8.50;;;8.50;90.20;;;;;;6310774;28;20120;-79
2021/10/29 09:38:14;;;;;;;28.48;10.68;;;8.50;90.10;;;;;;6309599;28;20094;-79
2021/10/29 09:41:22;;;;;;;26.65;10.68;;;8.50;90.20;;;;;;6308610;28;20045;-80
2021/10/29 09:44:37;;;;;;;;;;;8.60;90.20;;;;;;6309808;28;20051;-80
2021/10/29 09:47:40;;;;;;;22.90;9.80;;;8.60;90.10;;;;;;6308258;28;19920;-80
2021/10/29 09:50:49;;;;;;;27.02;11.02;;;8.80;90.20;;;;;;6306746;28;20052;-80
2021/10/29 09:54:11;;;;;;;31.00;11.18;;;9.00;90.10;;;;;;6307042;28;20098;-79
2021/10/29 09:57:15;;;;;;;32.17;10.55;;;9.00;90.00;;;;;;6304491;28;20040;-81
2021/10/29 10:00:17;;;;;;;25.73;10.35;;;9.10;89.70;;;;;;6300585;28;20086;-80
2021/10/29 10:03:20;;;;;;;21.95;8.80;;;9.10;89.30;;;;;;6310583;28;20108;-80
2021/10/29 10:06:25;;;;;;;21.67;10.00;;;9.10;88.30;;;;;;6307488;28;20052;-80
2021/10/29 10:09:29;;;;;;;18.15;10.25;;;9.10;88.10;;;;;;6305187;28;20056;-79
2021/10/29 10:12:34;;;;;;;26.08;10.07;;;9.20;89.00;;;;;;6308395;28;20049;-80
2021/10/29 10:15:36;;;;;;;16.65;8.90;;;9.30;88.30;;;;;;6305703;28;20052;-81
2021/10/29 10:18:40;;;;;;;22.48;8.57;;;9.40;87.90;;;;;;6303102;28;20044;-80
2021/10/29 10:21:45;;;;;;;16.55;8.00;;;9.50;87.50;;;;;;6303575;28;20044;-80
2021/10/29 10:24:51;;;;;;;19.02;8.93;;;9.50;87.30;;;;;;6303684;28;20114;-80
2021/10/29 10:45:35;;;;;;;19.25;9.90;;;10.00;85.80;;;;;;6338482;27;20982;-80
2021/10/29 10:48:43;;;;;;;23.77;9.15;;;10.00;84.90;;;;;;6319980;28;20067;-80
2021/10/29 10:51:49;;;;;;;20.08;9.82;;;10.00;84.80;;;;;;6300805;28;20052;-80
2021/10/29 10:54:59;;;;;;;20.25;9.68;;;10.20;85.60;;;;;;6300104;28;20052;-80
2021/10/29 10:58:15;;;;;;;25.30;11.00;;;10.20;84.80;;;;;;6299173;28;20499;-80
2021/10/29 11:04:46;;;;;;;17.95;9.43;;;10.20;84.80;;;;;;6299368;28;20044;-80
2021/10/29 11:11:38;;;;;;;21.75;10.82;;;10.20;84.20;;;;;;6285858;28;20044;-81
2021/10/29 11:14:40;;;;;;;20.52;10.05;;;10.20;84.90;;;;;;6226339;28;20046;-82
2021/10/29 11:17:47;;;;;;;19.25;10.30;;;10.20;84.40;;;;;;6326776;28;20067;-82
2021/10/29 11:20:51;;;;;;;18.90;10.80;;;10.30;84.70;;;;;;6330044;28;20054;-81
2021/10/29 11:23:59;;;;;;;20.95;9.82;;;10.40;84.60;;;;;;6329305;28;20044;-80
2021/10/29 11:27:05;;;;;;;19.70;10.63;;;10.50;84.40;;;;;;6331060;28;20102;-81
2021/10/29 11:30:08;;;;;;;19.90;10.48;;;10.50;84.30;;;;;;6329317;28;20055;-82
2021/10/29 11:33:11;;;;;;;18.65;9.85;;;10.60;84.20;;;;;;6330023;28;20048;-81
2021/10/29 11:36:15;;;;;;;17.27;10.45;;;10.70;84.00;;;;;;6329911;28;20048;-82
2021/10/29 11:39:19;;;;;;;23.38;11.65;;;10.70;83.80;;;;;;6327501;28;20131;-79
2021/10/29 11:42:21;;;;;;;21.80;10.77;;;10.80;83.50;;;;;;6328069;28;20048;-80
2021/10/29 11:45:30;;;;;;;19.50;10.65;;;10.80;83.30;;;;;;6324607;28;20044;-80
2021/10/29 11:48:44;;;;;;;21.23;12.05;;;10.90;83.20;;;;;;6327633;28;20112;-79
2021/10/29 11:51:46;;;;;;;24.10;12.88;;;10.90;82.80;;;;;;6324402;28;20409;-79
2021/10/29 11:54:51;;;;;;;21.42;11.38;;;10.90;83.00;;;;;;6322853;28;20490;-80
2021/10/29 11:58:00;;;;;;;20.40;11.70;;;10.90;82.80;;;;;;6312764;28;20040;-80
2021/10/29 12:01:14;;;;;;;21.35;12.80;;;10.90;83.00;;;;;;6311378;28;20403;-79
2021/10/29 12:07:37;;;;;;;22.17;12.57;;;10.90;83.00;;;;;;6310466;28;20134;-80
2021/10/29 12:10:43;;;;;;;26.48;13.45;;;11.00;82.90;;;;;;6309297;28;20051;-81
2021/10/29 12:13:45;;;;;;;19.98;11.82;;;11.00;83.00;;;;;;6311204;28;20041;-81
2021/10/29 12:16:47;;;;;;;25.15;12.80;;;11.00;83.40;;;;;;6310585;28;20048;-81
2021/10/29 12:19:54;;;;;;;62.40;22.80;;;11.10;82.60;;;;;;6310902;28;20052;-80
2021/10/29 12:22:59;;;;;;;52.40;20.95;;;11.20;82.60;;;;;;6312400;28;20071;-80
2021/10/29 12:26:04;;;;;;;30.15;15.10;;;11.30;83.00;;;;;;6309714;28;20052;-82
2021/10/29 12:29:12;;;;;;;27.33;14.25;;;11.50;82.40;;;;;;6308469;28;20075;-81
2021/10/29 12:32:38;;;;;;;24.40;11.93;;;11.60;81.90;;;;;;6311827;28;20526;-81
2021/10/29 12:47:33;;;;;;;22.50;12.40;;;11.80;81.40;;;;;;6306241;28;20048;-81
2021/10/29 12:53:14;;;;;;;24.00;12.85;;;12.20;80.30;;;;;;6304085;28;20040;-79
2021/10/29 13:02:57;;;;;;;25.95;12.10;;;12.20;79.40;;;;;;6301999;28;20037;-79
2021/10/29 13:05:59;;;;;;;26.30;14.93;;;12.20;79.10;;;;;;6304593;28;20473;-79
2021/10/29 13:09:12;;;;;;;18.25;11.55;;;12.20;79.50;;;;;;6304749;28;20075;-79
2021/10/29 13:12:17;;;;;;;20.90;11.98;;;12.40;79.80;;;;;;6305099;28;20059;-79
2021/10/29 13:15:20;;;;;;;19.80;10.18;;;12.50;79.30;;;;;;6306467;28;20151;-81
2021/10/29 13:18:25;;;;;;;21.17;11.52;;;12.60;79.20;;;;;;6304210;28;20040;-79
2021/10/29 13:25:16;;;;;;;20.90;10.25;;;12.60;78.80;;;;;;6303674;28;20052;-79
2021/10/29 13:28:28;;;;;;;21.80;11.88;;;12.50;79.00;;;;;;6300241;28;20049;-80
2021/10/29 13:35:08;;;;;;;18.15;9.73;;;12.80;79.40;;;;;;6305107;28;20036;-82
2021/10/29 13:51:22;;;;;;;13.80;8.98;;;15.50;73.50;;;;;;6259972;28;20053;-86
2021/10/29 13:54:32;;;;;;;14.07;9.35;;;15.60;71.50;;;;;;6257981;28;20133;-86
2021/10/29 14:01:13;;;;;;;12.27;8.30;;;15.60;70.10;;;;;;6237596;28;20046;-85
2021/10/29 14:24:34;;;;;;;13.00;6.88;;;16.70;68.10;;;;;;6236310;28;20041;-84
2021/10/29 14:31:04;;;;;;;11.63;7.60;;;16.80;67.50;;;;;;6247657;28;20041;-84
2021/10/29 14:34:11;;;;;;;13.30;7.57;;;17.00;67.30;;;;;;6260528;28;20408;-84
2021/10/29 14:37:17;;;;;;;17.38;7.82;;;17.00;66.20;;;;;;6259423;28;20545;-84
2021/10/29 14:40:26;;;;;;;13.68;8.07;;;16.90;66.50;;;;;;6261286;28;20573;-85
2021/10/29 14:43:31;;;;;;;13.73;7.43;;;17.00;66.30;;;;;;6261770;28;20056;-84
2021/10/29 14:46:45;;;;;;;14.25;8.65;;;17.20;65.80;;;;;;6267852;28;20048;-83
2021/10/29 14:49:55;;;;;;;16.38;10.15;;;17.50;64.50;;;;;;6253245;28;20061;-86
2021/10/29 15:16:30;;;;;;;17.98;10.43;;;16.10;66.50;;;;;;6223674;28;20132;-83
2021/10/29 15:26:33;;;;;;;20.95;11.95;;;15.40;67.70;;;;;;6225046;28;20144;-84
2021/10/29 15:29:48;;;;;;;21.73;12.00;;;15.10;68.80;;;;;;6238644;28;20122;-83
2021/10/29 15:33:09;;;;;;;21.15;11.57;;;14.70;69.50;;;;;;6257065;28;20587;-84
2021/10/29 15:43:12;;;;;;;24.58;12.75;;;13.70;71.40;;;;;;6252639;28;20049;-83
2021/10/29 15:46:16;;;;;;;23.98;12.82;;;13.40;72.10;;;;;;6253285;28;20049;-84
2021/10/29 15:49:36;;;;;;;27.45;13.30;;;13.20;73.20;;;;;;6253578;28;20048;-83
2021/10/29 15:52:39;;;;;;;22.48;12.50;;;12.80;74.10;;;;;;6254624;28;20071;-84
2021/10/29 15:55:46;;;;;;;24.48;12.80;;;12.60;74.80;;;;;;6254473;28;20041;-84
2021/10/29 15:58:56;;;;;;;21.27;12.70;;;12.30;75.60;;;;;;6250921;28;20050;-86
2021/10/29 16:02:06;;;;;;;25.42;13.20;;;12.00;76.20;;;;;;6252843;28;20367;-83
2021/10/29 16:18:28;;;;;;;41.08;19.23;;;11.10;82.00;;;;;;6232995;28;20042;-86
2021/10/29 16:21:34;;;;;;;29.45;16.58;;;11.10;82.80;;;;;;6232642;28;20523;-88
2021/10/29 16:24:42;;;;;;;29.17;16.52;;;11.10;83.20;;;;;;6234741;28;20512;-87
2021/10/29 16:27:50;;;;;;;27.00;15.32;;;11.10;83.30;;;;;;6241751;28;20054;-83
2021/10/29 16:30:52;;;;;;;26.77;14.07;;;10.80;82.60;;;;;;6234384;28;20099;-87
2021/10/29 16:33:54;;;;;;;26.13;12.93;;;10.60;82.70;;;;;;6249468;28;20120;-87
2021/10/29 16:36:58;;;;;;;28.65;14.55;;;10.30;83.10;;;;;;6252736;28;20084;-87
2021/10/29 16:40:01;;;;;;;28.70;14.50;;;10.00;84.60;;;;;;6249373;28;20127;-87
2021/10/29 16:43:05;;;;;;;36.47;15.35;;;9.70;84.30;;;;;;6256098;28;20104;-84
2021/10/29 16:46:07;;;;;;;30.83;15.57;;;9.60;85.00;;;;;;6266116;28;20057;-84
2021/10/29 16:49:09;;;;;;;38.78;16.05;;;9.50;85.60;;;;;;6251617;28;20053;-87
2021/10/29 16:52:13;;;;;;;41.42;18.05;;;9.40;86.00;;;;;;6249921;28;20139;-87
2021/10/29 16:55:16;;;;;;;45.67;18.88;;;9.50;86.40;;;;;;6255086;28;20140;-85
2021/10/29 16:58:19;;;;;;;55.33;21.65;;;9.40;86.80;;;;;;6248624;28;20100;-88
2021/10/29 17:01:20;;;;;;;56.50;23.25;;;9.40;87.30;;;;;;6243692;28;20054;-84
2021/10/29 17:04:22;;;;;;;50.78;22.08;;;9.50;87.70;;;;;;6229237;28;20046;-85
2021/10/29 17:07:24;;;;;;;48.90;20.58;;;9.40;88.10;;;;;;6245598;28;20059;-88
2021/10/29 17:10:28;;;;;;;48.08;20.70;;;9.40;88.50;;;;;;6248586;28;20419;-85
2021/10/29 17:13:30;;;;;;;65.43;20.40;;;9.40;88.80;;;;;;6248754;28;20065;-86
2021/10/29 17:16:32;;;;;;;58.35;19.63;;;9.40;89.00;;;;;;6248383;28;20046;-86
2021/10/29 17:19:34;;;;;;;71.18;20.13;;;9.40;89.20;;;;;;6249089;28;20053;-87
2021/10/29 17:22:36;;;;;;;80.95;23.25;;;9.40;89.40;;;;;;6254478;28;20177;-83
2021/10/29 17:25:39;;;;;;;71.05;21.02;;;9.40;89.60;;;;;;6264506;28;20145;-84
2021/10/29 17:28:41;;;;;;;74.15;18.30;;;9.40;89.80;;;;;;6261084;28;20064;-84
2021/10/29 17:31:43;;;;;;;62.80;18.75;;;9.40;89.80;;;;;;6239397;28;20100;-86
2021/10/29 17:34:45;;;;;;;77.68;20.13;;;9.40;90.00;;;;;;6228765;28;20069;-84
2021/10/29 17:37:48;;;;;;;123.80;31.42;;;9.40;90.10;;;;;;6240551;28;20081;-84
2021/10/29 17:40:51;;;;;;;104.47;28.02;;;9.30;90.10;;;;;;6234720;28;20073;-85
2021/10/29 17:43:53;;;;;;;84.70;20.58;;;9.20;90.20;;;;;;6230447;28;20139;-85
2021/10/29 17:46:56;;;;;;;70.40;18.67;;;9.10;90.30;;;;;;6233557;28;20050;-86
2021/10/29 17:50:00;;;;;;;93.13;22.00;;;9.00;90.30;;;;;;6225782;28;20046;-86
2021/10/29 17:53:03;;;;;;;106.65;39.78;;;8.90;90.40;;;;;;6228724;28;20050;-86
2021/10/29 17:56:07;;;;;;;68.72;17.55;;;8.80;90.40;;;;;;6228973;28;20076;-86
2021/10/29 17:59:09;;;;;;;56.13;20.25;;;8.70;90.60;;;;;;6239164;28;20052;-87
2021/10/29 18:02:12;;;;;;;75.60;18.80;;;8.60;90.70;;;;;;6252655;28;20669;-84
2021/10/29 18:05:16;;;;;;;39.58;16.90;;;8.60;90.80;;;;;;6269329;28;20065;-85
2021/10/29 18:08:23;;;;;;;58.20;16.95;;;8.50;90.80;;;;;;6263717;28;20034;-85
2021/10/29 18:11:26;;;;;;;55.38;16.15;;;8.40;90.90;;;;;;6268968;28;20041;-84
2021/10/29 18:14:28;;;;;;;48.45;19.52;;;8.30;90.90;;;;;;6263590;28;20049;-82
2021/10/29 18:17:30;;;;;;;63.70;22.17;;;8.20;91.00;;;;;;6251583;28;20072;-85
2021/10/29 18:20:32;;;;;;;61.40;21.45;;;8.20;91.10;;;;;;6265127;28;20068;-85
2021/10/29 18:23:34;;;;;;;70.22;25.35;;;8.10;91.10;;;;;;6272325;28;20042;-86
2021/10/29 18:26:37;;;;;;;71.30;23.73;;;8.10;91.20;;;;;;6250695;28;20046;-87
2021/10/29 18:29:39;;;;;;;69.25;23.98;;;8.10;91.30;;;;;;6247525;28;20049;-86
2021/10/29 18:32:43;;;;;;;57.35;20.92;;;8.10;91.30;;;;;;6248091;28;20061;-88
2021/10/29 18:35:48;;;;;;;62.40;18.75;;;8.10;91.40;;;;;;6248154;28;20581;-87
2021/10/29 18:38:50;;;;;;;50.47;17.73;;;8.10;91.40;;;;;;6249373;28;20041;-84
2021/10/29 18:41:56;;;;;;;95.95;21.73;;;8.00;91.40;;;;;;6237935;28;20077;-86
2021/10/29 18:45:19;;;;;;;66.47;18.48;;;8.00;91.50;;;;;;6237969;28;20053;-85
2021/10/29 18:48:24;;;;;;;72.38;21.55;;;8.00;91.50;;;;;;6251934;28;20403;-88
2021/10/29 18:51:32;;;;;;;64.05;18.95;;;8.00;91.60;;;;;;6252867;28;20128;-86
2021/10/29 18:54:38;;;;;;;88.75;22.02;;;8.10;91.70;;;;;;6238772;28;20519;-86
2021/10/29 18:57:46;;;;;;;77.05;21.65;;;8.00;91.60;;;;;;6247785;28;20072;-85
2021/10/29 19:00:48;;;;;;;171.35;21.80;;;7.90;91.60;;;;;;6246043;28;20058;-85
2021/10/29 19:07:15;;;;;;;73.88;17.85;;;7.80;91.50;;;;;;6250641;28;20046;-85
2021/10/29 19:10:30;;;;;;;80.50;17.08;;;7.60;91.60;;;;;;6227321;28;20056;-85
2021/10/29 19:13:44;;;;;;;60.08;18.05;;;7.50;91.70;;;;;;6232590;28;20077;-85
2021/10/29 19:16:49;;;;;;;46.42;15.52;;;7.40;91.70;;;;;;6237960;28;20069;-84
2021/10/29 19:23:23;;;;;;;43.58;14.90;;;7.20;91.80;;;;;;6234572;28;20124;-85